Time,TemperatureF,DewpointF,PressureIn,WindDirection,WindDirectionDegrees,WindSpeedMPH,WindSpeedGustMPH,Humidity,HourlyPrecipIn,Conditions,Clouds,dailyrainin,SolarRadiationWatts/m^2,SoftwareType,DateUTC
2013-02-07 00:22:00,29.0,20.0,-100.00,NNE,13,4.0,7.0,68,0.00,,,0.00,0.000000,,2013-02-07 07:22:00,
2013-02-07 00:31:00,29.0,20.0,-100.00,NNE,13,4.0,7.0,68,0.00,,,0.00,0.000000,,2013-02-07 07:31:00,
2013-02-07 00:41:00,29.0,20.0,-100.00,NNE,13,4.0,7.0,68,0.00,,,0.00,0.000000,,2013-02-07 07:41:00,
2013-02-07 00:52:00,29.0,20.0,-100.00,NNE,13,4.0,7.0,68,0.00,,,0.00,0.000000,,2013-02-07 07:52:00,
2013-02-07 01:21:00,29.0,21.0,-100.00,NE,52,3.0,6.0,71,0.00,,,0.00,0.000000,,2013-02-07 08:21:00,
2013-02-07 01:31:00,29.0,21.0,-100.00,NE,52,3.0,6.0,71,0.00,,,0.00,0.000000,,2013-02-07 08:31:00,
2013-02-07 02:21:00,27.0,20.0,-100.00,NNW,345,5.0,8.0,76,-99.99,,,0.00,0.000000,,2013-02-07 09:21:00,
2013-02-07 02:31:00,27.0,20.0,-100.00,NNW,345,5.0,8.0,76,-99.99,,,0.00,0.000000,,2013-02-07 09:31:00,
2013-02-07 02:41:00,27.0,20.0,-100.00,NNW,345,5.0,8.0,76,-99.99,,,0.00,0.000000,,2013-02-07 09:41:00,
2013-02-07 02:51:00,27.0,20.0,-100.00,NNW,345,5.0,8.0,76,-99.99,,,0.00,0.000000,,2013-02-07 09:51:00,
2013-02-07 03:22:00,27.0,21.0,-100.00,NE,35,3.0,5.0,77,0.00,,,0.00,0.000000,,2013-02-07 10:22:00,
2013-02-07 03:31:00,27.0,21.0,-100.00,NE,35,3.0,5.0,77,0.00,,,0.00,0.000000,,2013-02-07 10:31:00,
2013-02-07 03:41:00,27.0,21.0,-100.00,NE,35,3.0,5.0,77,0.00,,,0.00,0.000000,,2013-02-07 10:41:00,
2013-02-07 03:51:00,27.0,21.0,-100.00,NE,35,3.0,5.0,77,0.00,,,0.00,0.000000,,2013-02-07 10:51:00,
2013-02-07 04:22:00,26.0,20.0,-100.00,North,8,2.0,6.0,77,-99.99,,,0.00,0.000000,,2013-02-07 11:22:00,
2013-02-07 04:32:00,26.0,20.0,-100.00,North,8,2.0,6.0,77,-99.99,,,0.00,0.000000,,2013-02-07 11:32:00,
2013-02-07 04:43:00,26.0,20.0,-100.00,North,8,2.0,6.0,77,-99.99,,,0.00,0.000000,,2013-02-07 11:43:00,
2013-02-07 04:52:00,26.0,20.0,-100.00,North,8,2.0,6.0,77,-99.99,,,0.00,0.000000,,2013-02-07 11:52:00,
2013-02-07 05:22:00,26.0,20.0,-100.00,NE,40,3.0,7.0,78,0.00,,,0.00,0.000000,,2013-02-07 12:22:00,
2013-02-07 06:22:00,25.0,20.0,-100.00,NNE,31,3.0,6.0,81,-99.99,,,0.00,0.000000,,2013-02-07 13:22:00,
2013-02-07 07:21:00,24.0,16.0,-100.00,ENE,64,1.0,7.0,72,0.00,,,0.00,0.000000,,2013-02-07 14:21:00,
2013-02-07 07:32:00,24.0,16.0,-100.00,ENE,64,1.0,7.0,72,0.00,,,0.00,0.000000,,2013-02-07 14:32:00,
2013-02-07 08:22:00,28.0,15.0,-100.00,NE,39,2.0,7.0,58,-99.99,,,0.00,45.000000,,2013-02-07 15:22:00,
2013-02-07 09:21:00,33.0,15.0,-100.00,SSE,163,4.0,5.0,48,-99.99,,,0.00,236.000000,,2013-02-07 16:21:00,
2013-02-07 11:23:00,40.0,13.0,-100.00,SE,140,5.0,8.0,32,-99.99,,,0.00,579.000000,,2013-02-07 18:23:00,
2013-02-07 12:22:00,43.0,11.0,-100.00,South,180,5.0,9.0,27,0.00,,,0.00,678.000000,,2013-02-07 19:22:00,
2013-02-07 13:21:00,45.0,6.0,-100.00,SW,236,4.0,10.0,20,0.00,,,0.00,712.000000,,2013-02-07 20:21:00,
2013-02-07 14:21:00,47.0,8.0,-100.00,West,261,5.0,13.0,20,0.00,,,0.00,682.000000,,2013-02-07 21:21:00,
2013-02-07 14:31:00,47.0,8.0,-100.00,West,261,5.0,13.0,20,0.00,,,0.00,682.000000,,2013-02-07 21:31:00,
2013-02-07 15:21:00,47.0,14.0,-100.00,SSW,205,4.0,11.0,26,0.00,,,0.00,582.000000,,2013-02-07 22:21:00,
2013-02-07 15:31:00,47.0,14.0,-100.00,SSW,205,4.0,11.0,26,0.00,,,0.00,582.000000,,2013-02-07 22:31:00,
2013-02-07 15:42:00,47.0,14.0,-100.00,SSW,205,4.0,11.0,26,0.00,,,0.00,582.000000,,2013-02-07 22:42:00,
2013-02-07 15:51:00,47.0,14.0,-100.00,SSW,205,4.0,11.0,26,0.00,,,0.00,582.000000,,2013-02-07 22:51:00,
2013-02-07 16:21:00,48.0,9.0,-100.00,SW,222,5.0,11.0,20,0.00,,,0.00,432.000000,,2013-02-07 23:21:00,
2013-02-07 16:31:00,48.0,9.0,-100.00,SW,222,5.0,11.0,20,0.00,,,0.00,432.000000,,2013-02-07 23:31:00,
2013-02-07 16:41:00,48.0,9.0,-100.00,SW,222,5.0,11.0,20,0.00,,,0.00,432.000000,,2013-02-07 23:41:00,
2013-02-07 16:52:00,48.0,9.0,-100.00,SW,222,5.0,11.0,20,0.00,,,0.00,432.000000,,2013-02-07 23:52:00,
2013-02-07 17:21:00,45.0,6.0,-100.00,SW,222,4.0,10.0,20,0.00,,,0.00,246.000000,,2013-02-08 00:21:00,
2013-02-07 17:31:00,45.0,6.0,-100.00,SW,222,4.0,10.0,20,0.00,,,0.00,246.000000,,2013-02-08 00:31:00,
2013-02-07 17:41:00,45.0,6.0,-100.00,SW,222,4.0,10.0,20,0.00,,,0.00,246.000000,,2013-02-08 00:41:00,
2013-02-07 17:52:00,45.0,6.0,-100.00,SW,222,4.0,10.0,20,0.00,,,0.00,246.000000,,2013-02-08 00:52:00,
2013-02-07 19:21:00,35.0,14.0,-100.00,North,2,5.0,8.0,41,-99.99,,,0.00,0.000000,,2013-02-08 02:21:00,
2013-02-07 19:31:00,35.0,14.0,-100.00,North,2,5.0,8.0,41,-99.99,,,0.00,0.000000,,2013-02-08 02:31:00,
2013-02-07 19:42:00,35.0,14.0,-100.00,North,2,5.0,8.0,41,-99.99,,,0.00,0.000000,,2013-02-08 02:42:00,
2013-02-07 19:52:00,35.0,14.0,-100.00,North,2,5.0,8.0,41,-99.99,,,0.00,0.000000,,2013-02-08 02:52:00,
2013-02-07 20:22:00,33.0,13.0,-100.00,NNE,29,6.0,9.0,44,0.00,,,0.00,0.000000,,2013-02-08 03:22:00,
2013-02-07 20:32:00,33.0,13.0,-100.00,NNE,29,6.0,9.0,44,0.00,,,0.00,0.000000,,2013-02-08 03:32:00,
2013-02-07 20:41:00,33.0,13.0,-100.00,NNE,29,6.0,9.0,44,0.00,,,0.00,0.000000,,2013-02-08 03:41:00,
2013-02-07 20:51:00,33.0,13.0,-100.00,NNE,29,6.0,9.0,44,0.00,,,0.00,0.000000,,2013-02-08 03:51:00,
2013-02-07 21:21:00,32.0,15.0,-100.00,North,6,6.0,9.0,49,0.00,,,0.00,0.000000,,2013-02-08 04:21:00,
2013-02-07 21:31:00,32.0,15.0,-100.00,North,6,6.0,9.0,49,0.00,,,0.00,0.000000,,2013-02-08 04:31:00,
2013-02-07 22:22:00,30.0,15.0,-100.00,NNE,17,2.0,8.0,52,-99.99,,,0.00,0.000000,,2013-02-08 05:22:00,
2013-02-07 22:31:00,30.0,15.0,-100.00,NNE,17,2.0,8.0,52,-99.99,,,0.00,0.000000,,2013-02-08 05:31:00,
2013-02-07 22:41:00,30.0,15.0,-100.00,NNE,17,2.0,8.0,52,-99.99,,,0.00,0.000000,,2013-02-08 05:41:00,
2013-02-07 22:52:00,30.0,15.0,-100.00,NNE,17,2.0,8.0,52,-99.99,,,0.00,0.000000,,2013-02-08 05:52:00,
2013-02-07 23:21:00,29.0,14.0,-100.00,North,1,4.0,7.0,53,0.00,,,0.00,0.000000,,2013-02-08 06:21:00,
2013-02-07 23:31:00,29.0,14.0,-100.00,North,1,4.0,7.0,53,0.00,,,0.00,0.000000,,2013-02-08 06:31:00,
2013-02-07 23:41:00,29.0,14.0,-100.00,North,1,4.0,7.0,53,0.00,,,0.00,0.000000,,2013-02-08 06:41:00,
2013-02-07 23:51:00,29.0,14.0,-100.00,North,1,4.0,7.0,53,0.00,,,0.00,0.000000,,2013-02-08 06:51:00,